Time;durP1;ratioP1;P1;durP2;ratioP2;P2;SDS_P1;SDS_P2;PMS_P1;PMS_P2;Temp;Humidity;BMP_temperature;BMP_pressure;BME280_temperature;BME280_humidity;BME280_pressure;Samples;Min_cycle;Max_cycle;Signal;HPM_P1;HPM_P2
2023/11/02 00:01:52;;;;;;;1.10;0.25;;;10.60;91.30;;;;;;5139844;28;20046;-76
2023/11/02 00:04:19;;;;;;;0.30;0.30;;;10.50;91.30;;;;;;5139218;28;20081;-76
2023/11/02 00:06:46;;;;;;;0.28;0.28;;;10.50;91.30;;;;;;5157893;27;20058;-76
2023/11/02 00:09:32;;;;;;;0.50;0.30;;;10.50;91.40;;;;;;5122645;28;20047;-76
2023/11/02 00:12:02;;;;;;;0.43;0.30;;;10.50;91.40;;;;;;5139239;28;20065;-76
2023/11/02 00:14:42;;;;;;;0.20;0.20;;;10.40;91.40;;;;;;5139877;28;20107;-76
2023/11/02 00:17:45;;;;;;;0.57;0.30;;;10.40;91.40;;;;;;5139269;28;20071;-76
2023/11/02 00:20:31;;;;;;;0.20;0.20;;;10.40;91.50;;;;;;5138570;28;20111;-76
2023/11/02 00:22:59;;;;;;;0.47;0.20;;;10.40;91.50;;;;;;5138841;28;20093;-76
2023/11/02 00:25:46;;;;;;;0.35;0.30;;;10.30;91.50;;;;;;5154756;28;20101;-76
2023/11/02 00:28:12;;;;;;;0.63;0.40;;;10.40;91.50;;;;;;5120592;28;20039;-77
2023/11/02 00:30:40;;;;;;;0.30;0.30;;;10.40;91.50;;;;;;5156657;28;20476;-76
2023/11/02 00:33:06;;;;;;;0.10;0.10;;;10.40;91.50;;;;;;5121814;27;20047;-76
2023/11/02 00:35:32;;;;;;;0.85;0.20;;;10.40;91.50;;;;;;5157188;28;20106;-76
2023/11/02 00:37:58;;;;;;;0.20;0.20;;;10.40;91.50;;;;;;5157049;28;20065;-76
2023/11/02 00:40:23;;;;;;;0.75;0.30;;;10.40;91.50;;;;;;5157435;28;20027;-76
2023/11/02 00:42:49;;;;;;;0.20;0.20;;;10.40;91.50;;;;;;5157315;28;20051;-76
2023/11/02 00:45:15;;;;;;;0.55;0.35;;;10.30;91.40;;;;;;5156734;28;20048;-76
2023/11/02 00:47:42;;;;;;;0.20;0.20;;;10.30;91.40;;;;;;5138216;28;20043;-76
2023/11/02 00:50:40;;;;;;;0.35;0.30;;;10.30;91.50;;;;;;5136097;28;20036;-75
2023/11/02 00:53:06;;;;;;;0.60;0.25;;;10.30;91.50;;;;;;5155688;28;20034;-76
2023/11/02 00:55:34;;;;;;;0.65;0.35;;;10.30;91.50;;;;;;5157386;28;20052;-75
2023/11/02 00:58:08;;;;;;;0.17;0.17;;;10.40;91.50;;;;;;5123175;28;20047;-76
2023/11/02 01:01:05;;;;;;;0.57;0.20;;;10.40;91.50;;;;;;5138988;28;20083;-75
2023/11/02 01:03:32;;;;;;;0.75;0.20;;;10.40;91.50;;;;;;5156935;27;20038;-76
2023/11/02 01:05:58;;;;;;;0.45;0.20;;;10.40;91.40;;;;;;5139417;28;20039;-76
2023/11/02 01:08:30;;;;;;;0.30;0.30;;;10.40;91.40;;;;;;5157072;28;20049;-76
2023/11/02 01:10:55;;;;;;;0.38;0.30;;;10.40;91.40;;;;;;5139372;28;20057;-76
2023/11/02 01:13:21;;;;;;;0.25;0.25;;;10.40;91.40;;;;;;5139178;28;20027;-76
2023/11/02 01:16:04;;;;;;;0.50;0.22;;;10.40;91.40;;;;;;5139196;28;20035;-76
2023/11/02 01:18:29;;;;;;;0.20;0.20;;;10.30;91.40;;;;;;5156401;28;20102;-76
2023/11/02 01:21:03;;;;;;;0.20;0.20;;;10.30;91.40;;;;;;5156031;28;20043;-76
2023/11/02 01:23:30;;;;;;;0.15;0.15;;;10.30;91.50;;;;;;5156117;27;20034;-76
2023/11/02 01:25:57;;;;;;;0.20;0.20;;;10.30;91.50;;;;;;5156084;27;20043;-77
2023/11/02 01:28:42;;;;;;;0.20;0.20;;;10.30;91.50;;;;;;5139082;27;20031;-76
2023/11/02 01:31:15;;;;;;;0.20;0.20;;;10.40;91.50;;;;;;5136944;28;20035;-76
2023/11/02 01:33:53;;;;;;;0.10;0.10;;;10.30;91.40;;;;;;5137929;28;20039;-76
2023/11/02 01:36:44;;;;;;;0.40;0.30;;;10.40;91.50;;;;;;5139478;28;20427;-76
2023/11/02 01:39:51;;;;;;;1.13;0.30;;;10.30;91.50;;;;;;5155197;28;20023;-76
2023/11/02 01:42:25;;;;;;;0.20;0.20;;;10.40;91.50;;;;;;5141166;28;20046;-77
2023/11/02 01:45:05;;;;;;;0.20;0.20;;;10.30;91.40;;;;;;5107988;28;20019;-76
2023/11/02 01:47:49;;;;;;;0.10;0.10;;;10.40;91.50;;;;;;5159534;28;20076;-76
2023/11/02 01:50:47;;;;;;;0.20;0.20;;;10.40;91.50;;;;;;5141497;28;20027;-77
2023/11/02 01:53:34;;;;;;;0.52;0.38;;;10.30;91.40;;;;;;5160088;27;20015;-76
2023/11/02 01:56:28;;;;;;;0.30;0.20;;;10.40;91.40;;;;;;5158325;28;20062;-76
2023/11/02 01:59:06;;;;;;;0.32;0.25;;;10.40;91.40;;;;;;5155987;27;20047;-76
2023/11/02 02:01:37;;;;;;;0.95;0.30;;;10.40;91.40;;;;;;5156776;28;20044;-76
2023/11/02 02:04:24;;;;;;;0.68;0.30;;;10.40;91.40;;;;;;5142001;28;20059;-76
2023/11/02 02:07:19;;;;;;;0.20;0.20;;;10.40;91.40;;;;;;5159806;27;20027;-76
2023/11/02 02:10:08;;;;;;;0.73;0.30;;;10.40;91.40;;;;;;5144526;27;20059;-76
2023/11/02 02:12:56;;;;;;;0.10;0.10;;;10.40;91.40;;;;;;5141724;28;20039;-76
2023/11/02 02:15:36;;;;;;;0.68;0.32;;;10.40;91.40;;;;;;5142775;27;20133;-76
2023/11/02 02:18:27;;;;;;;0.20;0.20;;;10.40;91.40;;;;;;5159042;27;20055;-76
2023/11/02 02:20:58;;;;;;;0.20;0.20;;;10.40;91.40;;;;;;5141411;28;20029;-75
2023/11/02 02:23:44;;;;;;;0.10;0.10;;;10.40;91.40;;;;;;5140502;27;20068;-79
2023/11/02 02:26:48;;;;;;;0.63;0.20;;;10.40;91.40;;;;;;5141125;28;20050;-76
2023/11/02 02:29:53;;;;;;;0.32;0.30;;;10.50;91.40;;;;;;5148492;27;20035;-76
2023/11/02 02:32:55;;;;;;;1.08;0.40;;;10.50;91.40;;;;;;5137693;28;20043;-76
2023/11/02 02:35:25;;;;;;;0.30;0.30;;;10.50;91.30;;;;;;5150855;28;20047;-77
2023/11/02 02:38:00;;;;;;;0.70;0.22;;;10.50;91.30;;;;;;5117736;28;20049;-77
2023/11/02 02:40:33;;;;;;;0.47;0.20;;;10.50;91.30;;;;;;5151059;27;20047;-76
2023/11/02 02:43:04;;;;;;;0.32;0.20;;;10.50;91.30;;;;;;5112061;28;20027;-76
2023/11/02 02:45:33;;;;;;;0.65;0.20;;;10.50;91.30;;;;;;5133070;28;20102;-76
2023/11/02 02:48:02;;;;;;;0.63;0.30;;;10.50;91.30;;;;;;5113711;28;20039;-76
2023/11/02 02:50:29;;;;;;;0.20;0.20;;;10.60;91.30;;;;;;5152108;27;20031;-76
2023/11/02 02:52:59;;;;;;;0.15;0.15;;;10.60;91.30;;;;;;5157044;28;20102;-76
2023/11/02 02:55:27;;;;;;;0.95;0.30;;;10.60;91.20;;;;;;5139454;28;20042;-75
2023/11/02 02:57:57;;;;;;;0.28;0.20;;;10.60;91.20;;;;;;5140003;28;20069;-76
2023/11/02 03:00:24;;;;;;;0.32;0.32;;;10.60;91.20;;;;;;5139564;28;20035;-75
2023/11/02 03:02:52;;;;;;;0.20;0.20;;;10.70;91.20;;;;;;5156713;28;20043;-76
2023/11/02 03:05:20;;;;;;;0.20;0.20;;;10.70;91.20;;;;;;5138950;28;20023;-76
2023/11/02 03:07:48;;;;;;;0.90;0.30;;;10.70;91.20;;;;;;5139220;28;20043;-76
2023/11/02 03:10:15;;;;;;;0.82;0.17;;;10.70;91.40;;;;;;5138983;28;20472;-75
2023/11/02 03:12:42;;;;;;;0.10;0.10;;;10.70;91.10;;;;;;5138686;28;20039;-75
2023/11/02 03:15:12;;;;;;;0.75;0.20;;;10.70;91.10;;;;;;5121577;28;20046;-76
2023/11/02 03:17:58;;;;;;;0.32;0.30;;;10.80;91.10;;;;;;5138547;28;20043;-75
2023/11/02 03:20:24;;;;;;;0.90;0.20;;;10.80;91.10;;;;;;5156635;28;20055;-76
2023/11/02 03:22:50;;;;;;;0.57;0.30;;;10.80;91.10;;;;;;5138635;28;20039;-75
2023/11/02 03:25:31;;;;;;;0.20;0.20;;;10.80;91.40;;;;;;5156216;28;20035;-76
2023/11/02 03:28:09;;;;;;;0.20;0.20;;;10.80;91.10;;;;;;5135613;28;20117;-76
2023/11/02 03:30:54;;;;;;;0.30;0.30;;;10.80;91.10;;;;;;5154242;28;20026;-75
2023/11/02 03:33:40;;;;;;;1.27;0.30;;;10.80;91.00;;;;;;5143529;27;20512;-75
2023/11/02 03:36:15;;;;;;;0.88;0.22;;;10.90;91.00;;;;;;5143506;28;20047;-75
2023/11/02 03:39:03;;;;;;;0.50;0.30;;;10.90;91.00;;;;;;5145431;28;20047;-75
2023/11/02 03:41:44;;;;;;;1.45;0.32;;;10.90;91.00;;;;;;5128536;28;20099;-75
2023/11/02 03:44:36;;;;;;;0.67;0.20;;;10.90;90.90;;;;;;5125847;28;20040;-75
2023/11/02 03:47:32;;;;;;;0.25;0.25;;;10.90;90.90;;;;;;5144943;28;20285;-75
2023/11/02 03:50:29;;;;;;;0.20;0.20;;;10.90;90.90;;;;;;5143410;28;20408;-74
2023/11/02 03:53:33;;;;;;;0.45;0.20;;;10.90;90.90;;;;;;5130688;28;20039;-75
2023/11/02 03:56:14;;;;;;;0.25;0.22;;;10.90;90.90;;;;;;5131085;28;20042;-74
2023/11/02 03:58:54;;;;;;;0.20;0.20;;;11.00;90.90;;;;;;5132128;28;20448;-75
2023/11/02 04:01:31;;;;;;;0.52;0.50;;;11.00;90.80;;;;;;5131178;28;20064;-75
2023/11/02 04:04:03;;;;;;;0.50;0.20;;;10.90;90.80;;;;;;5148460;27;20047;-75
2023/11/02 04:06:59;;;;;;;0.10;0.10;;;11.00;90.80;;;;;;5148758;27;20039;-75
2023/11/02 04:09:35;;;;;;;0.30;0.20;;;11.00;90.80;;;;;;5150086;28;20039;-75
2023/11/02 04:12:19;;;;;;;0.20;0.20;;;11.10;90.80;;;;;;5132458;28;20047;-76
2023/11/02 04:14:48;;;;;;;0.65;0.22;;;11.00;90.80;;;;;;5114081;28;20123;-75
2023/11/02 04:17:14;;;;;;;0.10;0.10;;;11.10;90.80;;;;;;5128296;28;20095;-74
2023/11/02 04:19:39;;;;;;;0.20;0.20;;;11.10;90.80;;;;;;5113350;28;20083;-74
2023/11/02 04:22:07;;;;;;;0.30;0.20;;;11.10;90.70;;;;;;5146584;28;20500;-74
2023/11/02 04:24:33;;;;;;;0.15;0.15;;;11.30;90.80;;;;;;5147415;28;20051;-74
2023/11/02 04:26:59;;;;;;;0.60;0.30;;;11.20;90.70;;;;;;5112897;28;20177;-74
2023/11/02 04:29:24;;;;;;;0.50;0.20;;;11.10;90.70;;;;;;5149551;28;20042;-75
2023/11/02 04:31:50;;;;;;;0.47;0.17;;;11.20;90.70;;;;;;5148920;28;20035;-74
2023/11/02 04:34:16;;;;;;;0.60;0.20;;;11.20;90.70;;;;;;5150649;28;20111;-74
2023/11/02 04:36:42;;;;;;;0.20;0.20;;;11.20;90.70;;;;;;5149847;28;20071;-74
2023/11/02 04:39:08;;;;;;;0.20;0.20;;;11.10;90.70;;;;;;5150383;28;20043;-74
2023/11/02 04:41:33;;;;;;;0.35;0.20;;;11.20;90.70;;;;;;5132530;28;20639;-75
2023/11/02 04:44:00;;;;;;;0.47;0.25;;;11.10;90.70;;;;;;5149993;28;20053;-74
2023/11/02 04:46:25;;;;;;;0.22;0.20;;;11.20;90.70;;;;;;5149568;28;20035;-74
2023/11/02 04:48:51;;;;;;;0.20;0.20;;;11.20;90.70;;;;;;5134718;28;20035;-75
2023/11/02 04:51:17;;;;;;;0.52;0.28;;;11.20;90.70;;;;;;5151606;28;20050;-74
2023/11/02 04:53:43;;;;;;;0.22;0.22;;;11.20;90.60;;;;;;5151433;28;20106;-74
2023/11/02 04:56:09;;;;;;;0.28;0.22;;;11.20;90.60;;;;;;5130847;28;20032;-75
2023/11/02 04:58:34;;;;;;;0.68;0.20;;;11.20;90.60;;;;;;5114347;28;20043;-75
2023/11/02 05:01:00;;;;;;;0.28;0.28;;;11.30;90.60;;;;;;5132201;28;20043;-74
2023/11/02 05:03:26;;;;;;;0.28;0.20;;;11.30;90.60;;;;;;5097233;28;20035;-74
2023/11/02 05:05:51;;;;;;;1.33;0.40;;;11.30;90.50;;;;;;5114173;28;20052;-74
2023/11/02 05:08:17;;;;;;;1.20;0.20;;;11.30;90.50;;;;;;5113812;28;20035;-76
2023/11/02 05:10:43;;;;;;;0.20;0.20;;;11.30;90.50;;;;;;5114139;28;20050;-74
2023/11/02 05:13:09;;;;;;;0.60;0.40;;;11.20;90.50;;;;;;5131510;28;20061;-74
2023/11/02 05:15:34;;;;;;;0.35;0.20;;;11.30;90.50;;;;;;5151247;28;20054;-76
2023/11/02 05:18:00;;;;;;;0.30;0.20;;;11.30;90.50;;;;;;5153101;27;20111;-75
2023/11/02 05:20:27;;;;;;;0.20;0.20;;;11.30;90.50;;;;;;5138830;28;20076;-75
2023/11/02 05:22:53;;;;;;;1.23;0.20;;;11.30;90.50;;;;;;5155357;27;20058;-75
2023/11/02 05:25:19;;;;;;;0.75;0.40;;;11.30;90.40;;;;;;5155614;28;20055;-74
2023/11/02 05:27:45;;;;;;;0.20;0.20;;;11.30;90.40;;;;;;5138366;28;20036;-75
2023/11/02 05:30:11;;;;;;;0.75;0.32;;;11.30;90.70;;;;;;5137726;28;20039;-75
2023/11/02 05:32:38;;;;;;;0.45;0.20;;;11.30;90.40;;;;;;5134617;28;20082;-74
2023/11/02 05:35:05;;;;;;;1.95;0.40;;;11.30;90.40;;;;;;5153623;28;20046;-74
2023/11/02 05:37:31;;;;;;;1.27;0.30;;;11.30;90.40;;;;;;5132893;28;20046;-74
2023/11/02 05:39:57;;;;;;;0.30;0.30;;;11.30;90.40;;;;;;5152947;28;20039;-74
2023/11/02 05:42:23;;;;;;;0.57;0.40;;;11.30;90.40;;;;;;5151978;27;20078;-74
2023/11/02 05:44:48;;;;;;;0.35;0.35;;;11.40;90.40;;;;;;5118076;28;20103;-74
2023/11/02 05:47:14;;;;;;;0.75;0.20;;;11.40;90.40;;;;;;5134124;28;20043;-75
2023/11/02 05:49:40;;;;;;;1.05;0.40;;;11.30;90.30;;;;;;5147367;28;20050;-74
2023/11/02 05:52:05;;;;;;;0.52;0.30;;;11.40;90.30;;;;;;5123935;28;20031;-74
2023/11/02 05:54:31;;;;;;;0.30;0.30;;;11.40;90.30;;;;;;5109219;28;20122;-74
2023/11/02 05:56:57;;;;;;;1.05;0.50;;;11.40;90.30;;;;;;5146921;28;20047;-75
2023/11/02 05:59:22;;;;;;;0.70;0.32;;;11.40;90.20;;;;;;5114081;28;20062;-76
2023/11/02 06:01:48;;;;;;;1.05;0.40;;;11.40;90.20;;;;;;5153412;27;20035;-74
2023/11/02 06:04:14;;;;;;;0.75;0.35;;;11.50;90.10;;;;;;5119206;28;20073;-75
2023/11/02 06:06:39;;;;;;;0.38;0.30;;;11.50;90.10;;;;;;5115880;28;20112;-75
2023/11/02 06:09:05;;;;;;;0.40;0.40;;;11.50;90.10;;;;;;5129456;28;20047;-74
2023/11/02 06:11:31;;;;;;;0.20;0.20;;;11.40;90.10;;;;;;5113721;28;20098;-74
2023/11/02 06:13:58;;;;;;;0.30;0.30;;;11.40;90.10;;;;;;5150670;28;20050;-74
2023/11/02 06:16:25;;;;;;;0.25;0.25;;;11.30;90.10;;;;;;5152204;27;20027;-74
2023/11/02 06:18:50;;;;;;;0.20;0.20;;;11.40;90.20;;;;;;5131237;28;20057;-75
2023/11/02 06:21:16;;;;;;;0.30;0.25;;;11.30;90.20;;;;;;5129266;28;20055;-74
2023/11/02 06:23:42;;;;;;;0.20;0.20;;;11.20;90.20;;;;;;5123913;28;20103;-76
2023/11/02 06:26:07;;;;;;;0.25;0.25;;;11.20;90.30;;;;;;5153761;28;20039;-75
2023/11/02 06:28:33;;;;;;;0.30;0.30;;;11.20;90.40;;;;;;5128530;28;20015;-75
2023/11/02 06:31:00;;;;;;;0.47;0.20;;;11.20;90.30;;;;;;5154780;27;20415;-76
2023/11/02 06:33:30;;;;;;;0.30;0.30;;;11.20;90.30;;;;;;5136760;28;20095;-76
2023/11/02 06:35:56;;;;;;;0.22;0.20;;;11.20;90.30;;;;;;5120884;28;20067;-75
2023/11/02 06:38:23;;;;;;;0.80;0.40;;;11.30;90.30;;;;;;5138760;28;20038;-75
2023/11/02 06:40:49;;;;;;;0.20;0.20;;;11.30;90.20;;;;;;5105382;28;20050;-76
2023/11/02 06:43:15;;;;;;;0.20;0.20;;;11.30;90.20;;;;;;5138964;28;20185;-76
2023/11/02 06:45:41;;;;;;;0.40;0.22;;;11.30;90.20;;;;;;5139033;28;20035;-76
2023/11/02 06:48:06;;;;;;;0.43;0.28;;;11.30;90.30;;;;;;5158017;27;20039;-76
2023/11/02 06:50:32;;;;;;;0.60;0.20;;;11.30;90.30;;;;;;5121439;28;20118;-76
2023/11/02 06:52:58;;;;;;;0.20;0.20;;;11.30;90.30;;;;;;5159404;27;20491;-76
2023/11/02 06:55:27;;;;;;;0.28;0.28;;;11.30;90.30;;;;;;5138783;27;20059;-78
2023/11/02 06:57:53;;;;;;;0.20;0.20;;;11.30;90.30;;;;;;5121317;28;20050;-78
2023/11/02 07:00:22;;;;;;;0.20;0.20;;;11.20;90.30;;;;;;5139474;28;20091;-77
2023/11/02 07:02:49;;;;;;;0.20;0.20;;;11.20;90.40;;;;;;5140907;28;20065;-77
2023/11/02 07:05:15;;;;;;;0.20;0.20;;;11.20;90.40;;;;;;5121340;28;20118;-78
2023/11/02 07:07:48;;;;;;;1.02;0.30;;;11.20;90.40;;;;;;5121046;27;20434;-78
2023/11/02 07:10:14;;;;;;;0.20;0.20;;;11.20;90.50;;;;;;5114345;28;20032;-78
2023/11/02 07:12:40;;;;;;;0.20;0.20;;;11.20;90.50;;;;;;5090809;28;20036;-75
2023/11/02 07:15:06;;;;;;;0.28;0.20;;;11.10;90.50;;;;;;5108788;28;20108;-78
2023/11/02 07:17:32;;;;;;;0.20;0.20;;;11.10;90.50;;;;;;5100313;28;20035;-77
2023/11/02 07:19:58;;;;;;;0.13;0.13;;;11.10;90.60;;;;;;5099328;28;20040;-77
2023/11/02 07:22:23;;;;;;;0.98;0.20;;;11.20;90.60;;;;;;5100697;28;20070;-78
2023/11/02 07:24:49;;;;;;;0.38;0.38;;;11.10;90.60;;;;;;5100871;28;20112;-78
2023/11/02 07:27:15;;;;;;;0.30;0.30;;;11.10;90.60;;;;;;5117121;28;20028;-78
2023/11/02 07:29:41;;;;;;;0.30;0.30;;;11.10;90.60;;;;;;5083052;28;20048;-77
2023/11/02 07:32:08;;;;;;;0.30;0.20;;;11.10;90.60;;;;;;5098297;28;20047;-76
2023/11/02 07:34:34;;;;;;;0.20;0.20;;;11.10;90.70;;;;;;5066821;28;20398;-77
2023/11/02 07:37:00;;;;;;;0.20;0.20;;;11.10;90.80;;;;;;5080437;28;20042;-78
2023/11/02 07:40:28;;;;;;;0.20;0.20;;;11.00;90.70;;;;;;5091070;28;20082;-79
2023/11/02 07:43:19;;;;;;;0.40;0.38;;;11.00;90.80;;;;;;5102090;28;20070;-79
2023/11/02 08:06:09;;;;;;;0.20;0.20;;;11.40;90.60;;;;;;4753209;30;20063;-79
2023/11/02 08:08:36;;;;;;;0.20;0.20;;;11.60;90.60;;;;;;4783281;29;20062;-80
2023/11/02 08:14:54;;;;;;;0.20;0.20;;;11.60;90.50;;;;;;4786510;29;20524;-80
2023/11/02 08:45:01;;;;;;;0.40;0.30;;;12.50;90.10;;;;;;6208990;23;20091;-82
2023/11/02 08:51:15;;;;;;;0.85;0.30;;;12.50;90.20;;;;;;6254720;23;20046;-79
2023/11/02 08:53:43;;;;;;;0.47;0.40;;;12.50;89.90;;;;;;6254599;23;20008;-80
2023/11/02 08:56:12;;;;;;;0.20;0.20;;;12.50;89.90;;;;;;6221859;23;20020;-78
2023/11/02 08:58:44;;;;;;;0.52;0.20;;;12.60;90.00;;;;;;6194591;23;20107;-78
2023/11/02 09:01:11;;;;;;;0.25;0.20;;;12.60;90.00;;;;;;6193760;23;20031;-78
2023/11/02 09:03:38;;;;;;;1.15;0.32;;;12.60;90.00;;;;;;6219891;23;20013;-77
2023/11/02 09:06:06;;;;;;;0.30;0.30;;;12.70;90.00;;;;;;6219557;23;20023;-77
2023/11/02 09:08:34;;;;;;;0.20;0.20;;;12.70;90.00;;;;;;6219525;23;20035;-77
2023/11/02 09:10:59;;;;;;;0.20;0.20;;;12.70;90.00;;;;;;6219653;23;20012;-77
2023/11/02 09:13:25;;;;;;;0.32;0.20;;;12.70;90.00;;;;;;6219434;23;20023;-77
2023/11/02 09:15:51;;;;;;;0.63;0.30;;;12.70;90.00;;;;;;6219456;23;20341;-77
2023/11/02 09:18:17;;;;;;;0.73;0.20;;;12.70;90.00;;;;;;6219520;23;20464;-77
2023/11/02 09:20:42;;;;;;;0.85;0.30;;;12.70;90.10;;;;;;6220092;23;20011;-77
2023/11/02 09:40:45;;;;;;;0.20;0.20;;;12.90;90.00;;;;;;5698065;25;20017;-79
2023/11/02 09:43:14;;;;;;;0.68;0.30;;;12.90;89.90;;;;;;5714100;25;20080;-78
2023/11/02 09:45:40;;;;;;;0.57;0.28;;;13.00;89.80;;;;;;5715359;25;20099;-78
2023/11/02 09:48:06;;;;;;;1.92;0.50;;;13.00;89.60;;;;;;5713298;25;20062;-78
2023/11/02 09:50:32;;;;;;;1.00;0.32;;;13.20;89.40;;;;;;5701684;25;20029;-77
2023/11/02 09:53:08;;;;;;;1.27;0.47;;;13.20;89.10;;;;;;5687759;25;20029;-79
2023/11/02 09:56:11;;;;;;;2.05;0.40;;;13.50;88.80;;;;;;5684654;25;20029;-80
2023/11/02 09:58:43;;;;;;;1.77;0.40;;;13.60;88.50;;;;;;5667318;25;20076;-79
2023/11/02 10:01:18;;;;;;;1.20;0.40;;;13.70;88.10;;;;;;5733375;25;20063;-78
2023/11/02 10:03:45;;;;;;;2.13;0.68;;;13.80;87.70;;;;;;5783441;24;20031;-77
2023/11/02 10:06:14;;;;;;;2.00;0.50;;;14.00;87.20;;;;;;5845369;24;20576;-78
2023/11/02 10:26:19;;;;;;;3.88;0.77;;;14.60;85.10;;;;;;5738439;24;20106;-78
2023/11/02 10:32:38;;;;;;;1.67;0.73;;;14.70;83.80;;;;;;5685463;25;20036;-78
2023/11/02 10:38:23;;;;;;;1.70;0.50;;;14.80;83.70;;;;;;5648539;25;20349;-79
2023/11/02 10:40:52;;;;;;;1.77;0.60;;;14.80;83.20;;;;;;5635961;25;20053;-78
2023/11/02 10:43:22;;;;;;;5.00;1.08;;;14.80;83.00;;;;;;5637011;25;20088;-79
2023/11/02 10:46:48;;;;;;;2.47;0.80;;;14.80;82.30;;;;;;5670283;25;20026;-80
2023/11/02 10:49:24;;;;;;;2.60;0.75;;;14.90;82.30;;;;;;5650374;25;20416;-78
2023/11/02 11:02:43;;;;;;;3.92;0.65;;;14.90;81.00;;;;;;5768424;24;20170;-79
2023/11/02 11:05:18;;;;;;;3.83;1.10;;;14.90;80.80;;;;;;5764961;24;20024;-80
2023/11/02 11:14:50;;;;;;;;;;;15.00;80.70;;;;;;5871361;24;20021;-82
2023/11/02 11:17:29;;;;;;;2.20;0.80;;;15.00;80.70;;;;;;5851710;24;19932;-80
2023/11/02 11:20:57;;;;;;;3.88;0.60;;;15.00;80.40;;;;;;5843274;24;20026;-80
2023/11/02 11:29:46;;;;;;;2.33;0.93;;;15.10;79.20;;;;;;5730113;25;20155;-77
2023/11/02 11:32:32;;;;;;;3.03;0.90;;;15.00;79.00;;;;;;5714449;25;20043;-77
2023/11/02 11:35:13;;;;;;;2.38;0.90;;;15.20;78.40;;;;;;5714792;24;20104;-76
2023/11/02 11:37:46;;;;;;;2.13;1.00;;;15.20;77.90;;;;;;5792392;24;20475;-78
2023/11/02 11:40:32;;;;;;;2.13;0.93;;;15.40;77.70;;;;;;5813876;24;20023;-78
2023/11/02 11:43:04;;;;;;;2.85;0.80;;;15.50;77.20;;;;;;5792753;24;20051;-78
2023/11/02 11:45:32;;;;;;;3.70;1.00;;;15.50;76.90;;;;;;5862628;24;20447;-77
2023/11/02 11:48:00;;;;;;;5.05;1.52;;;15.50;76.70;;;;;;5902513;24;20031;-78
2023/11/02 11:50:43;;;;;;;3.80;0.93;;;15.50;75.80;;;;;;5955067;24;20025;-78
2023/11/02 11:53:12;;;;;;;4.75;1.15;;;15.60;75.80;;;;;;5954985;24;20051;-78
2023/11/02 11:55:38;;;;;;;2.15;0.75;;;15.60;75.60;;;;;;5904813;24;20024;-78
2023/11/02 11:58:49;;;;;;;6.97;1.23;;;15.60;75.50;;;;;;5938895;24;20509;-78
2023/11/02 12:01:22;;;;;;;2.55;0.80;;;15.60;75.20;;;;;;6134570;23;20021;-78
2023/11/02 12:03:50;;;;;;;2.70;1.00;;;15.50;75.60;;;;;;6179197;23;20016;-78
2023/11/02 12:07:21;;;;;;;2.80;0.90;;;15.20;75.30;;;;;;6165691;23;20020;-78
2023/11/02 12:46:52;;;;;;;2.95;0.98;;;14.50;76.70;;;;;;5761588;24;20070;-78
2023/11/02 14:13:03;;;;;;;4.13;0.70;;;14.50;71.60;;;;;;5946308;24;20036;-77
2023/11/02 15:27:38;;;;;;;1.02;0.40;;;11.70;79.20;;;;;;6005506;23;20031;-77
2023/11/02 15:34:33;;;;;;;1.85;0.38;;;11.70;79.40;;;;;;5921658;24;20369;-76
2023/11/02 15:44:41;;;;;;;4.18;1.02;;;11.60;80.00;;;;;;5813050;24;20092;-76
2023/11/02 15:47:47;;;;;;;1.65;0.68;;;11.60;80.10;;;;;;5707580;25;20031;-74
2023/11/02 15:50:38;;;;;;;2.75;0.70;;;11.60;80.10;;;;;;5685519;25;20041;-76
2023/11/02 16:19:28;;;;;;;1.88;0.82;;;11.50;80.60;;;;;;6022374;23;20070;-77
2023/11/02 16:22:22;;;;;;;2.78;0.60;;;11.70;80.60;;;;;;6073197;23;20359;-78
2023/11/02 16:25:23;;;;;;;1.70;0.52;;;11.70;80.60;;;;;;6034897;23;20024;-76
2023/11/02 16:32:24;;;;;;;2.30;0.57;;;11.80;80.50;;;;;;5921386;24;20054;-76
2023/11/02 16:56:22;;;;;;;2.30;0.93;;;11.50;81.20;;;;;;5842115;24;20029;-77
2023/11/02 16:58:58;;;;;;;0.90;0.38;;;11.60;81.20;;;;;;5806522;24;20175;-75
2023/11/02 17:01:44;;;;;;;2.38;0.68;;;11.50;81.20;;;;;;5842757;24;20048;-75
2023/11/02 17:04:14;;;;;;;2.58;0.63;;;11.60;81.20;;;;;;5882384;24;20018;-75
2023/11/02 17:07:00;;;;;;;0.73;0.60;;;11.70;81.30;;;;;;5885005;24;20565;-75
2023/11/02 17:09:26;;;;;;;2.05;0.70;;;11.60;81.20;;;;;;5927743;24;20044;-76
2023/11/02 17:11:52;;;;;;;1.60;0.55;;;11.70;81.20;;;;;;5958731;23;20039;-75
2023/11/02 17:14:17;;;;;;;0.77;0.32;;;11.70;81.10;;;;;;6009072;23;20032;-73
2023/11/02 17:16:43;;;;;;;1.05;0.40;;;11.70;81.10;;;;;;6023011;23;20090;-74
2023/11/02 17:19:09;;;;;;;2.47;0.65;;;11.70;81.10;;;;;;6008332;23;20515;-75
2023/11/02 17:21:35;;;;;;;1.27;0.35;;;11.80;80.90;;;;;;6009042;23;20055;-75
2023/11/02 17:24:01;;;;;;;0.32;0.32;;;11.80;80.90;;;;;;6008422;23;20020;-75
2023/11/02 17:26:27;;;;;;;0.80;0.50;;;11.80;80.80;;;;;;6009123;23;20027;-76
2023/11/02 17:28:53;;;;;;;1.52;0.70;;;11.90;80.70;;;;;;6019699;23;20050;-74
2023/11/02 17:31:19;;;;;;;1.23;0.63;;;12.00;80.50;;;;;;6106968;23;20014;-74
2023/11/02 17:33:44;;;;;;;2.10;0.77;;;12.00;80.20;;;;;;6089202;23;20056;-75
2023/11/02 17:36:13;;;;;;;1.92;0.70;;;12.10;80.00;;;;;;6155450;23;20429;-74
2023/11/02 17:38:39;;;;;;;1.90;0.80;;;12.10;79.70;;;;;;6240023;23;20015;-74
2023/11/02 17:41:06;;;;;;;2.05;1.05;;;12.10;79.60;;;;;;6245796;23;20004;-74
2023/11/02 17:43:33;;;;;;;2.20;0.88;;;12.10;79.50;;;;;;6245927;23;20046;-72
2023/11/02 17:45:59;;;;;;;2.00;0.80;;;12.20;79.30;;;;;;6218536;23;20062;-75
2023/11/02 17:48:26;;;;;;;3.25;1.10;;;12.30;79.20;;;;;;6245421;23;20008;-75
2023/11/02 17:50:53;;;;;;;3.55;1.10;;;12.30;79.00;;;;;;6245698;23;20008;-75
2023/11/02 17:53:19;;;;;;;2.10;1.10;;;12.20;78.90;;;;;;6194389;23;20101;-78
2023/11/02 17:55:45;;;;;;;3.45;1.17;;;12.30;78.70;;;;;;6245402;23;20012;-76
2023/11/02 17:58:12;;;;;;;3.08;1.27;;;12.30;78.60;;;;;;6245542;23;20007;-77
2023/11/02 18:00:40;;;;;;;3.25;1.10;;;12.30;78.70;;;;;;6218554;23;20012;-77
2023/11/02 18:03:06;;;;;;;2.30;1.17;;;12.30;78.60;;;;;;6245742;23;20086;-77
2023/11/02 18:05:33;;;;;;;3.33;1.45;;;12.30;78.80;;;;;;6193360;23;20038;-77
2023/11/02 18:07:59;;;;;;;2.15;1.27;;;12.30;78.80;;;;;;6218379;23;20069;-74
2023/11/02 18:10:28;;;;;;;5.25;1.50;;;12.30;78.80;;;;;;6218306;23;20066;-78
2023/11/02 18:12:54;;;;;;;3.17;1.40;;;12.30;78.80;;;;;;6242813;23;20011;-78
2023/11/02 18:15:20;;;;;;;3.90;1.55;;;12.30;78.70;;;;;;6188241;23;20009;-76
2023/11/02 18:17:46;;;;;;;3.50;1.40;;;12.20;78.70;;;;;;6237552;23;20371;-76
2023/11/02 18:20:12;;;;;;;4.60;1.60;;;12.20;78.70;;;;;;6245464;23;20010;-75
2023/11/02 18:22:38;;;;;;;3.13;1.40;;;12.20;78.60;;;;;;6245573;23;20075;-75
2023/11/02 18:25:05;;;;;;;2.25;1.20;;;12.30;78.70;;;;;;6245088;23;20008;-76
2023/11/02 18:27:31;;;;;;;2.92;1.20;;;12.30;78.50;;;;;;6193258;23;20441;-76
2023/11/02 18:29:56;;;;;;;2.63;0.80;;;12.30;78.20;;;;;;6218497;23;20012;-77
2023/11/02 18:32:22;;;;;;;3.03;1.00;;;12.40;77.90;;;;;;6218021;23;20008;-77
2023/11/02 18:34:48;;;;;;;2.75;0.90;;;12.40;77.50;;;;;;6245472;23;20492;-77
2023/11/02 18:37:14;;;;;;;1.40;0.90;;;12.40;77.30;;;;;;6218252;23;20090;-77
2023/11/02 18:39:39;;;;;;;3.63;1.35;;;12.30;77.20;;;;;;6218153;23;20016;-76
2023/11/02 18:42:05;;;;;;;1.27;0.88;;;12.40;77.40;;;;;;6245231;23;20476;-78
2023/11/02 18:44:32;;;;;;;4.60;0.75;;;12.30;77.30;;;;;;6245752;23;20012;-76
2023/11/02 18:47:00;;;;;;;1.63;0.60;;;12.30;76.90;;;;;;6245304;23;20012;-77
2023/11/02 18:49:26;;;;;;;1.17;0.70;;;12.30;76.70;;;;;;6194574;23;20008;-77
2023/11/02 18:51:53;;;;;;;0.85;0.47;;;12.40;76.70;;;;;;6213823;23;20032;-77
2023/11/02 18:54:19;;;;;;;1.13;0.50;;;12.40;76.50;;;;;;6237245;23;20009;-78
2023/11/02 18:56:46;;;;;;;1.83;0.80;;;12.40;76.50;;;;;;6218223;23;20062;-77
2023/11/02 18:59:12;;;;;;;1.83;0.55;;;12.50;76.40;;;;;;6193321;23;20019;-77
2023/11/02 19:01:38;;;;;;;0.77;0.40;;;12.40;76.20;;;;;;6219946;23;20044;-76
2023/11/02 19:04:04;;;;;;;2.65;0.60;;;12.50;76.20;;;;;;6246739;23;20478;-75
2023/11/02 19:06:32;;;;;;;0.95;0.60;;;12.40;76.20;;;;;;6219374;23;20012;-75
2023/11/02 19:08:59;;;;;;;0.30;0.30;;;12.40;76.20;;;;;;6245976;23;20044;-74
2023/11/02 19:11:25;;;;;;;1.58;0.60;;;12.40;76.20;;;;;;6218762;23;20046;-75
2023/11/02 19:13:51;;;;;;;2.10;0.45;;;12.30;76.20;;;;;;6218390;23;20008;-75
2023/11/02 19:16:23;;;;;;;0.60;0.40;;;12.40;76.30;;;;;;6219605;23;20010;-76
2023/11/02 19:18:49;;;;;;;0.60;0.40;;;12.40;76.30;;;;;;6167497;23;20008;-76
2023/11/02 19:21:15;;;;;;;1.48;0.60;;;12.30;76.50;;;;;;6214802;23;20058;-77
2023/11/02 19:23:42;;;;;;;2.50;0.80;;;12.30;76.50;;;;;;6217842;23;20436;-75
2023/11/02 19:26:08;;;;;;;1.77;0.68;;;12.40;76.50;;;;;;6245684;23;20457;-76
2023/11/02 19:28:34;;;;;;;4.00;0.70;;;12.20;76.30;;;;;;6245148;23;20050;-77
2023/11/02 19:31:00;;;;;;;1.52;0.57;;;12.50;76.30;;;;;;6193056;23;20091;-74
2023/11/02 19:33:26;;;;;;;2.05;0.60;;;12.30;76.20;;;;;;6244774;23;20012;-74